Time;durP1;ratioP1;P1;durP2;ratioP2;P2;SDS_P1;SDS_P2;PMS_P1;PMS_P2;Temp;Humidity;BMP_temperature;BMP_pressure;BME280_temperature;BME280_humidity;BME280_pressure;Samples;Min_cycle;Max_cycle;Signal;HPM_P1;HPM_P2
2022/05/13 00:00:04;;;;;;;;;1.33;0.00;;;;;15.66;47.79;101566.84;5070643;27;45485;-55
2022/05/13 00:02:30;;;;;;;;;5.33;4.00;;;;;15.69;48.09;101572.00;5063203;28;45500;-58
2022/05/13 00:04:55;;;;;;;;;4.00;1.00;;;;;15.71;48.60;101570.09;5070830;28;45250;-58
2022/05/13 00:07:21;;;;;;;;;3.67;1.00;;;;;15.64;48.15;101571.44;5053620;28;46865;-57
2022/05/13 00:10:00;;;;;;;;;1.00;1.00;;;;;15.50;48.03;101564.22;5050062;28;45665;-57
2022/05/13 00:12:33;;;;;;;;;1.00;1.00;;;;;15.53;48.50;101573.88;5069299;28;45458;-55
2022/05/13 00:15:00;;;;;;;;;0.67;0.67;;;;;15.51;48.39;101560.56;5072281;28;45481;-54
2022/05/13 00:17:27;;;;;;;;;0.00;0.00;;;;;15.53;48.09;101568.53;5065459;27;46079;-62
2022/05/13 00:19:53;;;;;;;;;3.67;0.67;;;;;15.60;48.03;101578.78;5073084;27;45508;-60
2022/05/13 00:22:19;;;;;;;;;1.00;1.00;;;;;15.52;48.20;101582.88;5072037;27;45563;-57
2022/05/13 00:24:45;;;;;;;;;1.00;1.00;;;;;15.39;48.40;101572.03;5052965;28;45701;-59
2022/05/13 00:27:10;;;;;;;;;1.00;1.00;;;;;15.34;49.21;101574.97;5069900;27;45989;-55
2022/05/13 00:29:35;;;;;;;;;0.00;0.00;;;;;15.32;48.83;101566.19;5067863;28;46159;-58
2022/05/13 00:32:01;;;;;;;;;0.67;0.67;;;;;15.34;48.83;101574.13;5058022;28;45357;-59
2022/05/13 00:34:27;;;;;;;;;2.67;2.00;;;;;15.29;48.69;101568.19;5070100;28;45487;-59
2022/05/13 00:36:53;;;;;;;;;5.00;1.00;;;;;15.30;48.88;101573.44;5075694;28;45552;-51
2022/05/13 00:39:19;;;;;;;;;2.33;1.00;;;;;15.31;49.20;101580.53;5076836;27;46087;-55
2022/05/13 00:41:46;;;;;;;;;1.00;1.00;;;;;15.19;48.53;101575.91;5078849;27;45404;-57
2022/05/13 00:44:12;;;;;;;;;0.00;0.00;;;;;15.15;48.40;101555.63;5060184;27;45347;-56
2022/05/13 00:46:38;;;;;;;;;1.33;0.67;;;;;15.19;48.87;101565.19;5067144;28;45234;-59
2022/05/13 00:49:09;;;;;;;;;1.67;0.33;;;;;15.20;47.90;101566.06;5061993;27;45492;-56
2022/05/13 00:51:41;;;;;;;;;0.00;0.00;;;;;15.23;48.11;101561.38;5058219;27;45469;-59
2022/05/13 00:54:09;;;;;;;;;1.00;1.00;;;;;15.24;47.90;101573.84;5069736;27;45816;-55
2022/05/13 00:56:35;;;;;;;;;0.00;0.00;;;;;15.22;47.98;101569.50;5068796;27;45385;-56
2022/05/13 00:59:04;;;;;;;;;1.00;1.00;;;;;15.15;48.59;101568.16;5058058;27;45346;-53
2022/05/13 01:01:30;;;;;;;;;2.67;0.33;;;;;15.04;49.10;101560.75;5037877;28;45504;-56
2022/05/13 01:04:02;;;;;;;;;1.00;1.00;;;;;15.08;48.28;101569.47;5039377;28;45435;-55
2022/05/13 01:06:28;;;;;;;;;1.00;1.00;;;;;15.03;48.14;101567.06;5057270;28;45366;-56
2022/05/13 01:08:56;;;;;;;;;1.00;1.00;;;;;15.00;48.20;101570.78;5057017;28;45169;-57
2022/05/13 01:11:26;;;;;;;;;0.33;0.33;;;;;15.00;48.84;101570.78;5056551;27;45453;-56
2022/05/13 01:13:57;;;;;;;;;1.00;1.00;;;;;14.99;48.36;101563.72;5058555;27;45361;-59
2022/05/13 01:16:23;;;;;;;;;1.33;1.33;;;;;15.10;48.38;101571.09;5058284;28;45451;-56
2022/05/13 01:18:49;;;;;;;;;1.00;1.00;;;;;15.06;48.69;101574.91;5058107;28;45356;-58
2022/05/13 01:21:21;;;;;;;;;0.00;0.00;;;;;14.94;48.75;101568.47;5060674;28;45459;-56
2022/05/13 01:23:47;;;;;;;;;1.00;1.00;;;;;14.86;48.93;101568.06;5057791;28;45250;-53
2022/05/13 01:26:16;;;;;;;;;3.67;1.00;;;;;14.84;48.74;101563.72;5073410;28;45721;-56
2022/05/13 01:28:47;;;;;;;;;2.00;2.00;;;;;14.85;49.47;101563.66;5056038;28;46290;-56
2022/05/13 01:31:21;;;;;;;;;2.33;2.00;;;;;14.87;48.42;101574.28;5056113;28;45468;-54
2022/05/13 01:33:47;;;;;;;;;2.00;2.00;;;;;14.81;48.94;101559.41;5057575;27;45288;-57
2022/05/13 01:36:12;;;;;;;;;2.00;2.00;;;;;14.87;48.85;101585.00;5056833;28;45571;-56
2022/05/13 01:38:39;;;;;;;;;2.67;2.67;;;;;14.66;48.60;101563.84;5057549;28;46237;-55
2022/05/13 01:41:07;;;;;;;;;3.00;3.00;;;;;14.74;48.47;101585.69;5054743;27;45356;-52
2022/05/13 01:43:33;;;;;;;;;8.67;6.00;;;;;14.65;48.88;101596.94;5057468;27;45260;-52
2022/05/13 01:45:59;;;;;;;;;10.67;6.33;;;;;14.59;49.10;101585.72;5066239;27;45588;-57
2022/05/13 01:48:26;;;;;;;;;8.00;8.00;;;;;14.61;49.53;101578.47;5057622;28;46073;-52
2022/05/13 01:50:52;;;;;;;;;10.00;10.00;;;;;14.53;49.45;101572.69;5057782;28;45291;-53
2022/05/13 01:53:17;;;;;;;;;15.00;14.67;;;;;14.56;48.86;101575.16;5072832;27;45506;-53
2022/05/13 01:55:43;;;;;;;;;9.33;5.33;;;;;14.49;49.82;101573.81;5057614;28;45358;-58
2022/05/13 01:58:14;;;;;;;;;6.33;4.67;;;;;14.40;49.75;101576.00;5056203;27;45321;-55
2022/05/13 02:00:42;;;;;;;;;6.67;4.00;;;;;14.41;50.71;101571.50;5056944;28;45269;-55
2022/05/13 02:05:51;;;;;;;;;5.00;5.00;;;;;14.47;49.72;101560.50;5055302;28;45604;-51
2022/05/13 02:08:17;;;;;;;;;5.67;5.67;;;;;14.53;50.07;101565.50;5054667;28;46130;-53
2022/05/13 02:10:44;;;;;;;;;3.00;3.00;;;;;14.51;50.57;101567.41;5070326;28;46252;-54
2022/05/13 02:13:10;;;;;;;;;4.00;2.67;;;;;14.47;50.07;101563.19;5070632;28;45816;-54
2022/05/13 02:15:35;;;;;;;;;4.67;2.00;;;;;14.53;50.17;101575.34;5072526;28;45592;-54
2022/05/13 02:18:01;;;;;;;;;3.00;2.00;;;;;14.45;50.49;101568.63;5070968;27;45553;-57
2022/05/13 02:20:26;;;;;;;;;1.00;1.00;;;;;14.48;50.15;101562.25;5058856;27;45299;-58
2022/05/13 02:22:52;;;;;;;;;2.00;2.00;;;;;14.53;49.88;101575.34;5064697;28;45488;-55
2022/05/13 02:25:18;;;;;;;;;1.33;1.33;;;;;14.52;50.70;101573.63;5077532;27;45646;-55
2022/05/13 02:27:43;;;;;;;;;3.00;2.00;;;;;14.44;50.25;101576.72;5073580;27;45315;-56
2022/05/13 02:30:09;;;;;;;;;1.00;1.00;;;;;14.47;51.01;101581.06;5072502;27;45257;-52
2022/05/13 02:32:34;;;;;;;;;5.67;2.00;;;;;14.43;50.79;101574.97;5055376;27;46138;-58
2022/05/13 02:35:00;;;;;;;;;2.00;1.00;;;;;14.46;50.97;101577.53;5063966;28;45521;-57
2022/05/13 02:37:26;;;;;;;;;3.67;1.00;;;;;14.39;50.79;101571.59;5062339;28;46587;-57
2022/05/13 02:39:52;;;;;;;;;1.00;1.00;;;;;14.37;50.79;101572.66;5071858;27;45294;-55
2022/05/13 02:42:17;;;;;;;;;2.67;1.00;;;;;14.42;50.59;101575.91;5075638;27;45344;-58
2022/05/13 02:44:44;;;;;;;;;1.00;1.00;;;;;14.41;50.95;101576.88;5071848;27;45716;-57
2022/05/13 02:47:09;;;;;;;;;1.00;1.00;;;;;14.38;51.37;101577.91;5067779;28;46005;-55
2022/05/13 02:49:35;;;;;;;;;4.00;3.00;;;;;14.37;52.27;101588.72;5055304;28;46906;-56
2022/05/13 02:52:00;;;;;;;;;1.00;1.00;;;;;14.34;51.29;101580.84;5061662;28;45417;-54
2022/05/13 02:54:26;;;;;;;;;2.00;0.33;;;;;14.33;51.26;101580.00;5073317;28;45461;-54
2022/05/13 02:56:51;;;;;;;;;1.00;1.00;;;;;14.23;52.38;101561.88;5062140;27;47437;-55
2022/05/13 02:59:16;;;;;;;;;2.00;2.00;;;;;14.26;52.46;101567.91;5057109;28;45375;-58
2022/05/13 03:01:42;;;;;;;;;3.00;1.33;;;;;14.22;52.15;101573.50;5068024;28;45895;-59
2022/05/13 03:04:07;;;;;;;;;1.33;1.33;;;;;14.20;53.22;101575.41;5074456;27;45715;-58
2022/05/13 03:06:33;;;;;;;;;2.67;1.33;;;;;14.18;52.20;101564.78;5064050;27;45682;-57
2022/05/13 03:08:58;;;;;;;;;2.00;2.00;;;;;14.18;52.93;101573.66;5068878;27;45394;-56
2022/05/13 03:11:24;;;;;;;;;3.00;1.67;;;;;14.27;52.45;101576.78;5070151;27;45319;-56
2022/05/13 03:13:51;;;;;;;;;2.00;2.00;;;;;14.26;52.55;101572.38;5074289;27;45502;-54
2022/05/13 03:16:19;;;;;;;;;3.33;1.00;;;;;14.31;51.97;101575.66;5073540;27;47661;-57
2022/05/13 03:18:47;;;;;;;;;3.33;2.00;;;;;14.33;52.52;101579.13;5059579;28;45422;-56
2022/05/13 03:21:13;;;;;;;;;3.00;2.00;;;;;14.31;52.15;101567.63;5072380;27;45447;-51
2022/05/13 03:23:42;;;;;;;;;4.00;3.00;;;;;14.31;52.41;101575.66;5073761;28;45739;-54
2022/05/13 03:26:08;;;;;;;;;5.00;1.00;;;;;14.31;52.38;101570.31;5091803;27;46720;-53
2022/05/13 03:28:34;;;;;;;;;1.00;1.00;;;;;14.32;52.47;101572.03;5062926;28;45508;-59
2022/05/13 03:30:59;;;;;;;;;2.00;2.00;;;;;14.30;52.79;101571.25;5063732;27;45384;-53
2022/05/13 03:33:24;;;;;;;;;1.00;1.00;;;;;14.25;52.57;101559.97;5063324;28;45421;-57
2022/05/13 03:35:50;;;;;;;;;2.00;2.00;;;;;14.21;52.35;101561.09;5069939;28;46979;-56
2022/05/13 03:38:16;;;;;;;;;1.00;1.00;;;;;14.21;53.18;101569.97;5070165;27;45314;-53
2022/05/13 03:40:41;;;;;;;;;3.50;1.50;;;;;14.18;52.96;101581.69;5072878;28;45374;-54
2022/05/13 03:43:07;;;;;;;;;1.00;1.00;;;;;14.16;53.31;101577.38;5065523;28;46823;-55
2022/05/13 03:45:34;;;;;;;;;2.67;1.33;;;;;14.15;52.74;101575.66;5079621;27;45385;-53
2022/05/13 03:48:00;;;;;;;;;1.00;1.00;;;;;14.19;52.64;101582.53;5072798;27;45220;-54
2022/05/13 03:50:26;;;;;;;;;2.00;2.00;;;;;14.14;53.36;101574.78;5075973;27;45340;-52
2022/05/13 03:52:52;;;;;;;;;2.00;2.00;;;;;14.15;53.29;101587.22;5072730;27;45617;-57
2022/05/13 03:55:17;;;;;;;;;1.00;1.00;;;;;14.16;53.36;101577.38;5061855;28;46204;-55
2022/05/13 03:57:43;;;;;;;;;2.00;2.00;;;;;14.16;54.68;101585.41;5053132;27;45638;-58
2022/05/13 04:00:10;;;;;;;;;0.00;0.00;;;;;14.15;53.68;101581.88;5072700;28;45762;-55
2022/05/13 04:02:36;;;;;;;;;2.00;2.00;;;;;14.20;53.78;101589.66;5073826;27;45966;-56
2022/05/13 04:10:31;;;;;;;;;1.00;1.00;;;;;14.12;53.99;101587.38;5048371;28;45327;-52
2022/05/13 04:18:24;;;;;;;;;4.00;4.00;;;;;14.07;55.03;101581.44;5066272;28;45445;-55
2022/05/13 04:20:50;;;;;;;;;2.00;2.00;;;;;14.02;55.01;101585.28;5075720;27;45413;-55
2022/05/13 04:23:18;;;;;;;;;2.67;1.00;;;;;14.00;54.38;101580.03;5076843;28;45391;-52
2022/05/13 04:25:44;;;;;;;;;2.00;2.00;;;;;14.01;54.82;101578.22;5073758;27;46120;-56
2022/05/13 04:28:09;;;;;;;;;3.00;2.00;;;;;14.00;54.75;101582.72;5064492;27;45931;-56
2022/05/13 04:30:35;;;;;;;;;4.00;3.00;;;;;13.99;54.80;101577.44;5059926;28;45248;-55
2022/05/13 04:33:00;;;;;;;;;6.00;3.67;;;;;14.03;54.66;101601.25;5071857;27;45520;-58
2022/05/13 04:35:26;;;;;;;;;5.67;2.67;;;;;14.00;55.22;101590.72;5073756;27;46351;-57
2022/05/13 04:37:51;;;;;;;;;2.00;2.00;;;;;14.03;55.09;101597.72;5071228;27;45603;-51
2022/05/13 04:40:17;;;;;;;;;1.00;1.00;;;;;13.96;55.19;101602.56;5076720;27;45543;-51
2022/05/13 04:42:51;;;;;;;;;1.00;1.00;;;;;13.96;55.65;101604.38;5066061;27;45506;-58
2022/05/13 04:45:26;;;;;;;;;3.00;1.33;;;;;13.96;55.23;101605.22;5073792;27;46138;-54
2022/05/13 04:48:16;;;;;;;;;2.67;2.67;;;;;13.96;55.63;101597.22;5072578;27;45301;-57
2022/05/13 04:50:44;;;;;;;;;2.00;2.00;;;;;13.99;55.13;101604.19;5052740;28;45453;-50
2022/05/13 04:53:10;;;;;;;;;9.00;3.00;;;;;14.00;55.35;101603.25;5056744;28;45505;-58
2022/05/13 04:55:37;;;;;;;;;3.00;2.00;;;;;13.98;56.31;101606.00;5061430;27;45428;-55
2022/05/13 04:58:03;;;;;;;;;3.00;3.00;;;;;13.97;56.58;101608.75;5057396;27;45255;-52
2022/05/13 05:00:30;;;;;;;;;4.33;3.00;;;;;13.99;57.14;101612.22;5066875;28;45466;-55
2022/05/13 05:02:56;;;;;;;;;5.00;2.00;;;;;13.92;57.26;101600.97;5071157;28;45340;-59
2022/05/13 05:05:21;;;;;;;;;3.67;3.67;;;;;13.97;57.11;101620.31;5078369;27;45458;-56
2022/05/13 05:07:47;;;;;;;;;3.00;3.00;;;;;13.98;56.67;101624.72;5059032;27;45404;-53
2022/05/13 05:10:12;;;;;;;;;3.00;2.00;;;;;13.96;56.65;101629.28;5060368;28;45736;-57
2022/05/13 05:12:39;;;;;;;;;7.00;3.67;;;;;13.95;56.68;101632.91;5071311;27;45391;-58
2022/05/13 05:15:06;;;;;;;;;4.67;3.00;;;;;13.96;56.73;101629.28;5070093;27;45461;-54
2022/05/13 05:17:31;;;;;;;;;3.00;2.67;;;;;14.00;57.01;101632.66;5056468;28;45481;-55
2022/05/13 05:19:57;;;;;;;;;3.00;3.00;;;;;13.84;57.91;101608.56;5052185;28;45494;-58
2022/05/13 05:22:22;;;;;;;;;4.33;3.33;;;;;13.86;57.25;101631.59;5060542;27;45600;-59
2022/05/13 05:24:48;;;;;;;;;2.33;2.33;;;;;13.94;57.42;101646.38;5063385;28;45506;-56
2022/05/13 05:27:13;;;;;;;;;3.67;3.00;;;;;13.91;57.31;101643.84;5056340;28;45608;-55
2022/05/13 05:29:39;;;;;;;;;4.00;3.00;;;;;13.90;57.65;101656.34;5090934;27;45461;-56
2022/05/13 05:32:05;;;;;;;;;4.33;2.67;;;;;13.83;57.97;101650.47;5057445;28;45694;-56
2022/05/13 05:34:31;;;;;;;;;4.00;2.00;;;;;13.81;57.74;101647.03;5057176;28;47423;-58
2022/05/13 05:36:57;;;;;;;;;3.00;3.00;;;;;13.81;57.28;101656.84;5058560;28;45480;-56
2022/05/13 05:39:22;;;;;;;;;2.00;2.00;;;;;13.79;57.94;101658.72;5059554;28;45426;-55
2022/05/13 05:41:48;;;;;;;;;0.00;0.00;;;;;13.71;58.02;101651.13;5057022;28;45370;-62
2022/05/13 05:44:13;;;;;;;;;3.67;3.00;;;;;13.78;57.98;101657.84;5057014;27;45416;-54
2022/05/13 05:46:39;;;;;;;;;2.67;1.33;;;;;13.81;57.80;101662.22;5063155;28;45318;-58
2022/05/13 05:49:04;;;;;;;;;2.67;2.67;;;;;13.80;57.10;101666.69;5052358;27;45328;-57
2022/05/13 05:51:30;;;;;;;;;5.00;3.00;;;;;13.79;58.73;101662.25;5072357;27;45449;-61
2022/05/13 05:59:24;;;;;;;;;7.00;3.33;;;;;13.82;57.89;101661.25;5056910;28;45357;-57
2022/05/13 06:01:50;;;;;;;;;8.00;4.00;;;;;13.84;57.79;101675.41;5053470;28;45630;-58
2022/05/13 06:04:16;;;;;;;;;3.33;2.33;;;;;13.88;58.51;101675.16;5064739;28;45683;-64
2022/05/13 06:06:41;;;;;;;;;10.00;3.67;;;;;13.91;57.66;101678.59;5057026;27;46228;-60
2022/05/13 06:09:08;;;;;;;;;4.00;4.00;;;;;13.93;57.90;101680.25;5064175;27;45533;-61
2022/05/13 06:11:34;;;;;;;;;5.00;4.00;;;;;13.96;57.88;101687.28;5056002;27;45620;-64
2022/05/13 06:13:59;;;;;;;;;3.33;2.00;;;;;13.90;57.92;101683.09;5053743;27;46951;-67
2022/05/13 06:16:27;;;;;;;;;2.00;2.00;;;;;13.95;57.91;101691.75;5057810;27;45490;-60
2022/05/13 06:18:54;;;;;;;;;2.00;2.00;;;;;13.97;58.67;101700.56;5054924;28;45834;-54
2022/05/13 06:21:20;;;;;;;;;7.67;4.00;;;;;14.03;57.99;101700.22;5067333;28;45467;-60
2022/05/13 06:23:46;;;;;;;;;3.00;3.00;;;;;14.03;57.86;101694.88;5070761;27;46214;-59
2022/05/13 06:26:12;;;;;;;;;5.00;3.00;;;;;14.06;57.23;101689.38;5066258;27;45477;-60
2022/05/13 06:28:38;;;;;;;;;6.00;5.00;;;;;14.06;57.66;101693.84;5056472;28;45239;-62
2022/05/13 06:31:03;;;;;;;;;3.00;3.00;;;;;14.10;58.20;101696.28;5074823;28;46785;-63
2022/05/13 06:33:29;;;;;;;;;2.33;2.33;;;;;14.08;57.72;101703.53;5058753;27;45506;-54
2022/05/13 06:35:54;;;;;;;;;2.33;2.33;;;;;14.10;57.43;101704.31;5063457;28;45689;-67
2022/05/13 06:38:22;;;;;;;;;3.67;3.67;;;;;14.11;57.87;101705.19;5055892;28;45341;-59
2022/05/13 06:40:48;;;;;;;;;5.00;3.67;;;;;14.15;57.45;101712.94;5071345;27;45441;-67
2022/05/13 06:43:14;;;;;;;;;3.00;3.00;;;;;14.15;57.62;101704.06;5076255;27;46661;-56
2022/05/13 06:45:39;;;;;;;;;8.00;7.00;;;;;14.27;57.38;101718.59;5088177;27;45289;-56
2022/05/13 06:48:05;;;;;;;;;8.33;5.00;;;;;14.28;57.47;101704.28;5075661;27;45255;-62
2022/05/13 06:50:32;;;;;;;;;7.00;7.00;;;;;14.34;57.40;101703.97;5073444;27;45387;-62
2022/05/13 06:52:57;;;;;;;;;6.33;5.00;;;;;14.32;56.61;101706.72;5073186;27;45276;-61
2022/05/13 06:55:23;;;;;;;;;8.33;3.67;;;;;14.41;57.03;101726.75;5074732;28;45532;-61
2022/05/13 06:57:49;;;;;;;;;5.00;4.33;;;;;14.37;55.97;101722.50;5076665;28;45482;-58
2022/05/13 07:00:15;;;;;;;;;4.33;4.00;;;;;14.40;55.92;101727.69;5092276;27;45331;-63
2022/05/13 07:02:49;;;;;;;;;3.33;3.33;;;;;14.37;56.23;101727.88;5092050;27;45464;-65
2022/05/13 07:05:15;;;;;;;;;6.00;1.67;;;;;14.43;56.35;101724.84;5091772;27;45437;-63
2022/05/13 07:07:41;;;;;;;;;3.33;3.33;;;;;14.51;55.47;101724.47;5076131;27;45399;-58
2022/05/13 07:10:08;;;;;;;;;8.00;8.00;;;;;14.55;55.71;101723.34;5092547;27;45225;-65
2022/05/13 07:12:33;;;;;;;;;3.00;2.67;;;;;14.60;54.58;101714.13;5074822;27;46806;-57
2022/05/13 07:15:03;;;;;;;;;2.00;2.00;;;;;14.68;53.72;101717.22;5075784;28;45231;-66
2022/05/13 07:17:29;;;;;;;;;2.33;2.00;;;;;14.72;53.66;101726.84;5076247;27;45389;-62
2022/05/13 07:19:55;;;;;;;;;3.67;3.67;;;;;14.78;53.63;101733.66;5076345;27;45412;-61
2022/05/13 07:22:21;;;;;;;;;7.33;2.33;;;;;14.79;53.20;101731.84;5075898;27;45486;-62
2022/05/13 07:24:47;;;;;;;;;5.33;2.67;;;;;14.81;52.95;101728.13;5091886;27;45397;-61
2022/05/13 07:27:12;;;;;;;;;3.00;3.00;;;;;14.84;52.65;101722.59;5075990;27;45391;-63
2022/05/13 07:29:39;;;;;;;;;3.00;2.00;;;;;14.86;52.50;101723.41;5075541;28;45485;-60
2022/05/13 07:32:05;;;;;;;;;3.00;3.00;;;;;14.82;52.68;101720.97;5075507;28;45299;-66
2022/05/13 07:34:31;;;;;;;;;2.00;2.00;;;;;14.79;51.71;101705.94;5054126;28;45304;-62
2022/05/13 07:36:56;;;;;;;;;2.00;2.00;;;;;14.93;52.50;101735.47;5055416;28;45378;-67
2022/05/13 07:42:08;;;;;;;;;2.00;2.00;;;;;14.95;52.01;101725.53;5055502;28;45699;-66
2022/05/13 07:44:34;;;;;;;;;9.00;3.00;;;;;15.00;52.68;101722.63;5055956;27;45528;-69
2022/05/13 07:47:00;;;;;;;;;1.33;1.33;;;;;15.07;52.30;101742.75;5037801;27;45441;-61
2022/05/13 07:49:26;;;;;;;;;2.33;2.33;;;;;15.07;51.68;101729.34;5071269;27;45619;-63
2022/05/13 07:51:52;;;;;;;;;1.00;1.00;;;;;15.09;50.86;101735.47;5055540;28;46593;-65
2022/05/13 07:54:18;;;;;;;;;4.67;3.00;;;;;15.11;51.48;101730.91;5055323;28;45332;-66
2022/05/13 07:56:43;;;;;;;;;3.00;3.00;;;;;15.13;51.84;101731.69;5054116;27;45394;-65
2022/05/13 07:59:09;;;;;;;;;2.67;2.00;;;;;15.08;51.13;101717.69;5056234;27;45552;-63
2022/05/13 08:01:34;;;;;;;;;9.33;9.33;;;;;15.20;50.77;101727.69;5055438;28;46214;-69
2022/05/13 08:04:00;;;;;;;;;2.00;0.33;;;;;15.30;50.95;101734.25;5055296;27;45328;-69
2022/05/13 08:06:25;;;;;;;;;1.67;1.00;;;;;15.27;50.54;101709.47;5054370;28;45278;-67
2022/05/13 08:08:56;;;;;;;;;2.00;2.00;;;;;15.51;49.82;101707.16;5055913;28;45558;-67
2022/05/13 08:11:23;;;;;;;;;2.00;2.00;;;;;16.25;49.35;101715.19;5055325;28;45470;-67
2022/05/13 08:13:48;;;;;;;;;5.33;5.33;;;;;16.61;48.33;101713.84;5055091;28;45329;-65
2022/05/13 08:16:17;;;;;;;;;4.00;2.00;;;;;16.99;47.76;101731.09;5070966;27;45380;-63
2022/05/13 08:18:43;;;;;;;;;2.00;2.00;;;;;17.69;46.08;101715.69;5055621;28;45548;-61
2022/05/13 08:21:09;;;;;;;;;5.00;2.33;;;;;18.10;45.55;101724.56;5055307;28;45397;-63
2022/05/13 08:23:35;;;;;;;;;4.33;2.00;;;;;18.20;45.08;101717.56;5055164;28;45387;-60
2022/05/13 08:26:00;;;;;;;;;4.00;2.00;;;;;18.38;45.13;101724.38;5070746;27;45463;-58
2022/05/13 08:28:26;;;;;;;;;2.00;2.00;;;;;18.42;45.69;101717.78;5057147;27;45671;-61
2022/05/13 08:30:52;;;;;;;;;3.33;3.33;;;;;18.66;44.59;101707.13;5074007;27;46719;-58
2022/05/13 08:33:18;;;;;;;;;6.00;3.00;;;;;18.98;43.59;101710.13;5057980;27;45480;-61
2022/05/13 08:35:48;;;;;;;;;4.00;3.00;;;;;19.33;44.39;101712.06;5058662;27;45237;-58
2022/05/13 08:38:15;;;;;;;;;3.00;3.00;;;;;19.77;43.24;101716.78;5057504;28;45552;-59
2022/05/13 08:40:50;;;;;;;;;1.67;1.67;;;;;20.06;41.73;101713.69;5074358;28;48461;-60
2022/05/13 08:44:11;;;;;;;;;2.67;1.00;;;;;20.39;42.51;101712.88;5073833;27;45505;-58
2022/05/13 08:47:41;;;;;;;;;4.00;3.00;;;;;20.79;39.21;101713.25;4996194;28;45360;-61
2022/05/13 08:50:17;;;;;;;;;7.67;2.00;;;;;20.94;38.95;101711.13;4955446;28;45573;-62
2022/05/13 08:55:39;;;;;;;;;7.67;3.67;;;;;21.16;39.15;101719.22;5031798;28;45266;-61
2022/05/13 08:58:10;;;;;;;;;5.67;4.00;;;;;21.37;38.34;101722.03;5056553;28;45290;-65
2022/05/13 09:00:41;;;;;;;;;4.00;2.33;;;;;21.81;39.05;101706.56;5058522;28;45323;-58
2022/05/13 09:03:09;;;;;;;;;5.50;2.50;;;;;22.31;37.68;101716.59;5058053;27;47344;-66
2022/05/13 09:06:04;;;;;;;;;2.25;1.25;;;;;22.87;36.21;101705.28;5057945;28;45532;-58
2022/05/13 09:08:30;;;;;;;;;4.00;1.00;;;;;23.41;34.42;101703.09;5056599;28;45541;-62
2022/05/13 09:11:10;;;;;;;;;0.50;0.00;;;;;23.80;33.26;101704.81;5058228;27;45480;-59
2022/05/13 09:13:52;;;;;;;;;2.00;1.75;;;;;24.06;33.01;101702.34;5072778;28;46578;-58
2022/05/13 09:16:38;;;;;;;;;3.00;2.00;;;;;24.23;31.81;101700.75;5056300;28;45457;-63
2022/05/13 09:19:04;;;;;;;;;0.50;0.50;;;;;24.64;32.40;101696.75;5057623;28;45980;-64
2022/05/13 09:21:30;;;;;;;;;5.75;2.00;;;;;25.11;31.00;101696.63;5057802;28;45444;-65
2022/05/13 09:23:56;;;;;;;;;4.00;2.75;;;;;25.05;30.22;101699.97;5073204;28;47140;-63
2022/05/13 09:26:24;;;;;;;;;0.00;0.00;;;;;24.65;28.22;101709.34;5056471;27;45412;-64
2022/05/13 09:29:14;;;;;;;;;0.50;0.50;;;;;24.65;27.65;101703.88;5073210;28;45430;-61
2022/05/13 09:31:43;;;;;;;;;1.00;1.00;;;;;25.06;29.58;101698.97;5056286;28;45329;-63
2022/05/13 09:34:34;;;;;;;;;1.20;1.20;;;;;25.09;27.10;101701.38;5057413;28;45937;-60
2022/05/13 09:37:10;;;;;;;;;0.60;0.60;;;;;24.48;27.59;101707.41;5057393;27;45374;-58
2022/05/13 09:39:44;;;;;;;;;1.50;0.00;;;;;24.42;28.84;101705.28;5072818;28;45432;-64
2022/05/13 09:42:26;;;;;;;;;2.00;0.60;;;;;25.05;30.27;101696.41;5057474;27;45488;-62
2022/05/13 09:45:29;;;;;;;;;0.25;0.25;;;;;25.44;29.25;101708.72;5072294;28;46999;-61
2022/05/13 09:48:04;;;;;;;;;1.00;1.00;;;;;25.70;28.33;101703.34;5056346;28;45373;-63
2022/05/13 09:50:36;;;;;;;;;1.50;1.50;;;;;25.87;26.57;101693.44;5057669;27;45416;-63
2022/05/13 09:53:16;;;;;;;;;2.00;2.00;;;;;26.08;27.97;101702.13;5057608;27;45249;-61
2022/05/13 09:55:43;;;;;;;;;1.60;0.00;;;;;25.93;25.09;101697.41;5056298;28;48750;-64
2022/05/13 09:58:21;;;;;;;;;1.60;0.60;;;;;25.76;28.00;101702.72;5056001;27;45477;-64
2022/05/13 10:00:50;;;;;;;;;4.40;2.00;;;;;26.09;26.69;101692.06;5057108;28;45449;-60
2022/05/13 10:03:27;;;;;;;;;1.00;1.00;;;;;26.29;27.48;101679.03;5057732;28;45575;-64
2022/05/13 10:06:23;;;;;;;;;2.00;2.00;;;;;26.14;25.84;101689.69;5057052;28;46036;-62
2022/05/13 10:13:57;;;;;;;;;1.00;1.00;;;;;26.09;27.90;101682.00;5051260;27;45505;-60
2022/05/13 10:14:35;;;;;;;;;1.00;1.00;;;;;26.07;27.21;101683.19;5057127;28;45477;-60
2022/05/13 10:17:16;;;;;;;;;1.60;0.00;;;;;25.50;26.65;101678.09;5056464;27;46102;-59
2022/05/13 10:19:48;;;;;;;;;2.00;2.00;;;;;24.81;27.65;101677.88;5072202;28;45280;-64
2022/05/13 10:22:25;;;;;;;;;1.50;1.50;;;;;24.20;28.75;101686.56;5055486;27;45429;-64
2022/05/13 10:25:04;;;;;;;;;1.00;1.00;;;;;23.89;29.81;101680.50;5056807;28;45534;-61
2022/05/13 10:27:48;;;;;;;;;2.50;2.00;;;;;23.77;29.61;101674.38;5055632;28;45460;-62
2022/05/13 10:30:52;;;;;;;;;2.00;2.00;;;;;23.39;30.61;101670.66;5057160;28;45429;-65
2022/05/13 10:33:26;;;;;;;;;1.50;1.00;;;;;23.21;30.15;101680.50;5014953;28;45439;-63
2022/05/13 10:36:33;;;;;;;;;3.00;2.00;;;;;22.81;31.00;101675.13;5037150;28;45406;-62
2022/05/13 10:39:04;;;;;;;;;1.00;1.00;;;;;22.59;32.06;101673.50;4998743;28;45430;-65
2022/05/13 10:41:44;;;;;;;;;10.00;10.00;;;;;22.26;32.68;101674.63;5036273;28;45243;-63
2022/05/13 10:45:00;;;;;;;;;4.00;2.67;;;;;21.91;32.71;101678.56;5036672;28;45496;-61
2022/05/13 10:47:33;;;;;;;;;1.00;1.00;;;;;21.58;32.73;101671.47;5034756;28;45261;-63
2022/05/13 10:49:58;;;;;;;;;2.00;2.00;;;;;21.31;33.70;101669.25;5035699;28;45379;-61
2022/05/13 10:52:56;;;;;;;;;1.00;1.00;;;;;21.25;33.79;101675.19;5034694;28;45276;-60
2022/05/13 10:55:24;;;;;;;;;4.00;3.33;;;;;21.23;34.23;101670.88;5024102;28;45424;-64
2022/05/13 10:57:56;;;;;;;;;7.00;6.33;;;;;21.23;33.84;101668.16;5036511;28;45873;-60
2022/05/13 11:00:34;;;;;;;;;2.25;2.25;;;;;21.06;34.01;101664.16;5035937;27;45348;-63
2022/05/13 11:03:36;;;;;;;;;5.00;2.00;;;;;20.82;34.31;101675.16;5035728;28;45441;-62
2022/05/13 11:06:17;;;;;;;;;2.00;1.67;;;;;20.70;34.53;101657.22;5035976;28;45460;-61
2022/05/13 11:09:09;;;;;;;;;2.33;2.33;;;;;20.73;34.95;101662.41;5035201;28;45310;-62
2022/05/13 11:11:39;;;;;;;;;1.00;1.00;;;;;20.55;34.84;101665.59;5035609;28;45426;-63
2022/05/13 11:14:22;;;;;;;;;4.67;3.67;;;;;20.67;34.66;101663.75;5050987;28;45492;-63
2022/05/13 11:17:14;;;;;;;;;1.33;1.33;;;;;20.65;34.31;101654.91;5036352;28;45289;-64
2022/05/13 11:19:58;;;;;;;;;3.00;3.00;;;;;20.71;34.40;101653.56;4994967;28;45276;-65
2022/05/13 11:22:35;;;;;;;;;2.00;2.00;;;;;20.75;34.01;101661.28;5035408;28;47616;-65
2022/05/13 11:27:47;;;;;;;;;1.33;1.33;;;;;20.83;34.22;101648.00;5035764;28;45181;-63
2022/05/13 11:30:17;;;;;;;;;2.00;2.00;;;;;20.85;33.98;101647.88;5035907;28;45175;-62
2022/05/13 11:32:55;;;;;;;;;2.00;2.00;;;;;20.98;34.04;101655.84;5041053;28;45351;-64
2022/05/13 11:35:30;;;;;;;;;3.00;2.00;;;;;20.94;34.14;101646.25;5054698;28;45339;-61
2022/05/13 11:38:01;;;;;;;;;2.67;2.67;;;;;20.95;34.44;101648.81;5055690;28;45250;-61
2022/05/13 11:40:52;;;;;;;;;2.00;2.00;;;;;21.01;33.95;101645.63;5056343;28;45369;-64
2022/05/13 11:43:39;;;;;;;;;4.00;2.33;;;;;21.05;34.25;101641.66;5055949;28;45938;-60
2022/05/13 11:46:10;;;;;;;;;2.67;2.67;;;;;21.26;34.18;101644.44;5055558;28;45342;-58
2022/05/13 11:48:47;;;;;;;;;3.00;3.00;;;;;21.26;33.46;101639.03;5055136;28;45402;-61
2022/05/13 11:51:15;;;;;;;;;2.00;2.00;;;;;21.42;33.24;101644.00;5055792;28;45826;-65
2022/05/13 11:53:41;;;;;;;;;1.00;1.00;;;;;21.55;33.41;101633.84;5055357;28;45467;-60
2022/05/13 11:56:15;;;;;;;;;3.67;2.00;;;;;21.67;33.13;101638.19;5055449;28;45491;-63
2022/05/13 11:58:50;;;;;;;;;5.00;2.67;;;;;21.91;32.57;101645.19;5055475;27;45486;-63
2022/05/13 12:01:34;;;;;;;;;3.00;3.00;;;;;22.05;32.42;101642.13;5055677;28;45610;-61
2022/05/13 12:04:14;;;;;;;;;3.00;3.00;;;;;22.10;32.35;101631.78;5058806;28;45304;-60
2022/05/13 12:06:52;;;;;;;;;3.00;3.00;;;;;22.24;31.47;101639.53;5058710;27;45410;-61